Disclaimer

Please do not use the information listed here in-flight or in-navigation, as they are not provided to us by the airports but are provided by volunteers, so they might be outdated.

Search


Regions


Airport information page

Radio informations:
Ground (GND) - 121.825 MHz
LANGEN RADAR - 125.225 MHz
LANGEN INFO - 129.875 MHz

Airport informations:
Latitude: 51° 31' 05.93" N
Longitude: 007° 36' 44.07" E
Elevation: 425 feet - 130 meters
Operating hours: Remarks
Operating agency: Civil government, landing fees and diplomatic clearance may be required
Timezone: UTC+1(+2DT) - Last Sunday in March to last Sunday in October
Fuel: Jet A1, without icing nhibitor.

100/130 MIL Spec, low lead, aviation gasoline (BLUE)

Runway information:
06/24 - 6562 x 148 feet< - >2000 x 45 meters

Recent METARs:
EDLW 211620Z 08008KT CAVOK 02/M01 Q1017
EDLW 211650Z 08008KT 9999 BKN025 02/M01 Q1018
EDLW 211720Z 08007KT 9999 BKN022 02/M00 Q1018

Airport on the map: